sensor_id;sensor_type;location;lat;lon;timestamp;P1;durP1;ratioP1;P2;durP2;ratioP2
24685;SDS011;12804;51.176;4.452;2022-10-26T00:00:45;5.13;;;3.30;;
24685;SDS011;12804;51.176;4.452;2022-10-26T00:03:11;7.03;;;3.10;;
24685;SDS011;12804;51.176;4.452;2022-10-26T00:05:37;9.63;;;3.25;;
24685;SDS011;12804;51.176;4.452;2022-10-26T00:08:04;5.10;;;2.55;;
24685;SDS011;12804;51.176;4.452;2022-10-26T00:10:32;5.63;;;3.30;;
24685;SDS011;12804;51.176;4.452;2022-10-26T00:12:58;7.15;;;3.38;;
24685;SDS011;12804;51.176;4.452;2022-10-26T00:15:24;10.98;;;3.30;;
24685;SDS011;12804;51.176;4.452;2022-10-26T00:17:50;10.85;;;3.05;;
24685;SDS011;12804;51.176;4.452;2022-10-26T00:20:16;7.00;;;3.28;;
24685;SDS011;12804;51.176;4.452;2022-10-26T00:22:42;4.97;;;3.00;;
24685;SDS011;12804;51.176;4.452;2022-10-26T00:25:07;10.23;;;3.28;;
24685;SDS011;12804;51.176;4.452;2022-10-26T00:27:33;5.68;;;3.10;;
24685;SDS011;12804;51.176;4.452;2022-10-26T00:30:03;7.85;;;2.90;;
24685;SDS011;12804;51.176;4.452;2022-10-26T00:32:30;7.80;;;2.92;;
24685;SDS011;12804;51.176;4.452;2022-10-26T00:34:57;6.68;;;2.78;;
24685;SDS011;12804;51.176;4.452;2022-10-26T00:37:23;7.15;;;2.42;;
24685;SDS011;12804;51.176;4.452;2022-10-26T00:39:48;7.55;;;2.78;;
24685;SDS011;12804;51.176;4.452;2022-10-26T00:42:19;7.93;;;3.10;;
24685;SDS011;12804;51.176;4.452;2022-10-26T00:47:13;7.00;;;2.90;;
24685;SDS011;12804;51.176;4.452;2022-10-26T00:49:50;4.20;;;2.65;;
24685;SDS011;12804;51.176;4.452;2022-10-26T00:52:19;8.40;;;2.97;;
24685;SDS011;12804;51.176;4.452;2022-10-26T00:54:46;6.28;;;2.83;;
24685;SDS011;12804;51.176;4.452;2022-10-26T00:57:15;5.68;;;2.60;;
24685;SDS011;12804;51.176;4.452;2022-10-26T00:59:42;5.07;;;2.80;;
24685;SDS011;12804;51.176;4.452;2022-10-26T01:02:09;5.00;;;2.58;;
24685;SDS011;12804;51.176;4.452;2022-10-26T01:04:36;6.47;;;3.25;;
24685;SDS011;12804;51.176;4.452;2022-10-26T01:07:02;5.13;;;2.78;;
24685;SDS011;12804;51.176;4.452;2022-10-26T01:09:32;7.03;;;2.50;;
24685;SDS011;12804;51.176;4.452;2022-10-26T01:12:00;8.45;;;3.10;;
24685;SDS011;12804;51.176;4.452;2022-10-26T01:14:26;5.20;;;2.55;;
24685;SDS011;12804;51.176;4.452;2022-10-26T01:16:56;3.67;;;2.70;;
24685;SDS011;12804;51.176;4.452;2022-10-26T01:22:21;5.63;;;2.97;;
24685;SDS011;12804;51.176;4.452;2022-10-26T01:25:07;6.13;;;2.88;;
24685;SDS011;12804;51.176;4.452;2022-10-26T01:27:52;10.10;;;2.72;;
24685;SDS011;12804;51.176;4.452;2022-10-26T01:30:35;5.10;;;2.40;;
24685;SDS011;12804;51.176;4.452;2022-10-26T01:36:00;9.27;;;3.28;;
24685;SDS011;12804;51.176;4.452;2022-10-26T01:41:25;7.78;;;3.05;;
24685;SDS011;12804;51.176;4.452;2022-10-26T01:44:02;5.32;;;3.28;;
24685;SDS011;12804;51.176;4.452;2022-10-26T01:46:43;7.65;;;3.38;;
24685;SDS011;12804;51.176;4.452;2022-10-26T01:49:12;7.40;;;3.08;;
24685;SDS011;12804;51.176;4.452;2022-10-26T01:51:40;6.63;;;2.67;;
24685;SDS011;12804;51.176;4.452;2022-10-26T01:54:08;5.55;;;3.22;;
24685;SDS011;12804;51.176;4.452;2022-10-26T01:56:35;4.93;;;2.60;;
24685;SDS011;12804;51.176;4.452;2022-10-26T02:12:12;5.97;;;2.40;;
24685;SDS011;12804;51.176;4.452;2022-10-26T02:20:08;5.10;;;2.63;;
24685;SDS011;12804;51.176;4.452;2022-10-26T02:22:42;4.22;;;2.33;;
24685;SDS011;12804;51.176;4.452;2022-10-26T02:25:25;5.40;;;2.42;;
24685;SDS011;12804;51.176;4.452;2022-10-26T02:27:57;6.80;;;2.60;;
24685;SDS011;12804;51.176;4.452;2022-10-26T02:30:26;3.85;;;2.25;;
24685;SDS011;12804;51.176;4.452;2022-10-26T02:32:53;8.60;;;2.75;;
24685;SDS011;12804;51.176;4.452;2022-10-26T02:35:22;5.05;;;2.60;;
24685;SDS011;12804;51.176;4.452;2022-10-26T02:37:53;8.00;;;2.70;;
24685;SDS011;12804;51.176;4.452;2022-10-26T02:40:22;6.47;;;2.65;;
24685;SDS011;12804;51.176;4.452;2022-10-26T02:42:51;8.77;;;2.45;;
24685;SDS011;12804;51.176;4.452;2022-10-26T02:45:26;6.95;;;2.35;;
24685;SDS011;12804;51.176;4.452;2022-10-26T02:47:55;3.17;;;2.30;;
24685;SDS011;12804;51.176;4.452;2022-10-26T02:50:23;4.55;;;2.22;;
24685;SDS011;12804;51.176;4.452;2022-10-26T02:53:05;3.20;;;2.25;;
24685;SDS011;12804;51.176;4.452;2022-10-26T02:55:41;6.15;;;2.63;;
24685;SDS011;12804;51.176;4.452;2022-10-26T02:58:13;7.32;;;2.10;;
24685;SDS011;12804;51.176;4.452;2022-10-26T03:00:47;7.00;;;2.20;;
24685;SDS011;12804;51.176;4.452;2022-10-26T03:03:14;4.75;;;2.15;;
24685;SDS011;12804;51.176;4.452;2022-10-26T03:05:40;6.15;;;2.30;;
24685;SDS011;12804;51.176;4.452;2022-10-26T03:08:07;5.70;;;2.35;;
24685;SDS011;12804;51.176;4.452;2022-10-26T03:10:34;4.95;;;2.17;;
24685;SDS011;12804;51.176;4.452;2022-10-26T03:13:08;5.82;;;2.42;;
24685;SDS011;12804;51.176;4.452;2022-10-26T03:15:34;4.35;;;2.20;;
24685;SDS011;12804;51.176;4.452;2022-10-26T03:18:00;5.05;;;2.20;;
24685;SDS011;12804;51.176;4.452;2022-10-26T03:20:27;6.50;;;2.72;;
24685;SDS011;12804;51.176;4.452;2022-10-26T03:22:53;5.30;;;2.33;;
24685;SDS011;12804;51.176;4.452;2022-10-26T03:25:21;5.50;;;2.28;;
24685;SDS011;12804;51.176;4.452;2022-10-26T03:27:56;3.67;;;2.08;;
24685;SDS011;12804;51.176;4.452;2022-10-26T03:30:23;8.18;;;2.22;;
24685;SDS011;12804;51.176;4.452;2022-10-26T03:32:49;5.20;;;2.15;;
24685;SDS011;12804;51.176;4.452;2022-10-26T03:35:16;4.63;;;2.53;;
24685;SDS011;12804;51.176;4.452;2022-10-26T03:37:42;6.93;;;2.08;;
24685;SDS011;12804;51.176;4.452;2022-10-26T03:40:08;5.00;;;2.30;;
24685;SDS011;12804;51.176;4.452;2022-10-26T03:42:35;5.95;;;2.35;;
24685;SDS011;12804;51.176;4.452;2022-10-26T03:45:01;4.90;;;2.42;;
24685;SDS011;12804;51.176;4.452;2022-10-26T03:47:28;4.95;;;2.10;;
24685;SDS011;12804;51.176;4.452;2022-10-26T03:49:54;7.28;;;2.30;;
24685;SDS011;12804;51.176;4.452;2022-10-26T03:52:19;4.60;;;2.33;;
24685;SDS011;12804;51.176;4.452;2022-10-26T03:54:46;4.47;;;2.10;;
24685;SDS011;12804;51.176;4.452;2022-10-26T03:57:12;7.35;;;2.20;;
24685;SDS011;12804;51.176;4.452;2022-10-26T03:59:38;3.78;;;2.25;;
24685;SDS011;12804;51.176;4.452;2022-10-26T04:02:04;5.90;;;2.15;;
24685;SDS011;12804;51.176;4.452;2022-10-26T04:04:29;4.45;;;1.95;;
24685;SDS011;12804;51.176;4.452;2022-10-26T04:06:55;5.20;;;2.10;;
24685;SDS011;12804;51.176;4.452;2022-10-26T04:09:21;5.90;;;2.10;;
24685;SDS011;12804;51.176;4.452;2022-10-26T04:11:47;3.80;;;2.00;;
24685;SDS011;12804;51.176;4.452;2022-10-26T04:14:13;3.47;;;2.05;;
24685;SDS011;12804;51.176;4.452;2022-10-26T04:16:38;4.13;;;1.98;;
24685;SDS011;12804;51.176;4.452;2022-10-26T04:19:04;5.10;;;2.15;;
24685;SDS011;12804;51.176;4.452;2022-10-26T04:21:30;5.93;;;2.00;;
24685;SDS011;12804;51.176;4.452;2022-10-26T04:24:00;8.95;;;2.28;;
24685;SDS011;12804;51.176;4.452;2022-10-26T04:26:26;4.25;;;1.73;;
24685;SDS011;12804;51.176;4.452;2022-10-26T04:28:52;3.35;;;1.75;;
24685;SDS011;12804;51.176;4.452;2022-10-26T04:31:18;5.55;;;2.42;;
24685;SDS011;12804;51.176;4.452;2022-10-26T04:33:44;4.55;;;1.95;;
24685;SDS011;12804;51.176;4.452;2022-10-26T04:36:10;3.33;;;2.03;;
24685;SDS011;12804;51.176;4.452;2022-10-26T04:38:36;3.03;;;2.00;;
24685;SDS011;12804;51.176;4.452;2022-10-26T04:41:01;5.72;;;2.10;;
24685;SDS011;12804;51.176;4.452;2022-10-26T04:43:30;3.70;;;1.85;;
24685;SDS011;12804;51.176;4.452;2022-10-26T04:45:56;4.97;;;2.03;;
24685;SDS011;12804;51.176;4.452;2022-10-26T04:48:23;5.30;;;2.00;;
24685;SDS011;12804;51.176;4.452;2022-10-26T04:50:49;4.55;;;2.05;;
24685;SDS011;12804;51.176;4.452;2022-10-26T04:53:14;5.47;;;1.80;;
24685;SDS011;12804;51.176;4.452;2022-10-26T04:55:40;5.65;;;1.95;;
24685;SDS011;12804;51.176;4.452;2022-10-26T04:58:06;4.05;;;2.10;;
24685;SDS011;12804;51.176;4.452;2022-10-26T05:00:33;5.75;;;2.15;;
24685;SDS011;12804;51.176;4.452;2022-10-26T05:03:00;6.30;;;2.00;;
24685;SDS011;12804;51.176;4.452;2022-10-26T05:05:26;3.47;;;1.70;;
24685;SDS011;12804;51.176;4.452;2022-10-26T05:07:53;4.22;;;2.08;;
24685;SDS011;12804;51.176;4.452;2022-10-26T05:10:20;2.97;;;1.65;;
24685;SDS011;12804;51.176;4.452;2022-10-26T05:12:49;3.15;;;1.83;;
24685;SDS011;12804;51.176;4.452;2022-10-26T05:15:19;8.57;;;1.92;;
24685;SDS011;12804;51.176;4.452;2022-10-26T05:17:46;2.58;;;1.60;;
24685;SDS011;12804;51.176;4.452;2022-10-26T05:20:12;4.82;;;1.83;;
24685;SDS011;12804;51.176;4.452;2022-10-26T05:22:38;4.38;;;2.00;;
24685;SDS011;12804;51.176;4.452;2022-10-26T05:25:05;3.47;;;1.75;;
24685;SDS011;12804;51.176;4.452;2022-10-26T05:27:31;4.05;;;2.25;;
24685;SDS011;12804;51.176;4.452;2022-10-26T05:29:57;3.22;;;1.67;;
24685;SDS011;12804;51.176;4.452;2022-10-26T05:32:22;5.53;;;2.17;;
24685;SDS011;12804;51.176;4.452;2022-10-26T05:34:48;5.82;;;2.05;;
24685;SDS011;12804;51.176;4.452;2022-10-26T05:37:14;4.03;;;2.00;;
24685;SDS011;12804;51.176;4.452;2022-10-26T05:39:40;3.53;;;1.95;;
24685;SDS011;12804;51.176;4.452;2022-10-26T05:42:07;4.68;;;1.85;;
24685;SDS011;12804;51.176;4.452;2022-10-26T05:44:33;4.97;;;1.70;;
24685;SDS011;12804;51.176;4.452;2022-10-26T05:46:59;4.85;;;2.22;;
24685;SDS011;12804;51.176;4.452;2022-10-26T05:49:24;6.20;;;1.65;;
24685;SDS011;12804;51.176;4.452;2022-10-26T05:51:50;2.88;;;1.30;;
24685;SDS011;12804;51.176;4.452;2022-10-26T05:54:19;6.40;;;2.00;;
24685;SDS011;12804;51.176;4.452;2022-10-26T05:56:45;4.45;;;1.60;;
24685;SDS011;12804;51.176;4.452;2022-10-26T05:59:11;3.58;;;1.67;;
24685;SDS011;12804;51.176;4.452;2022-10-26T06:07:03;6.40;;;1.67;;
24685;SDS011;12804;51.176;4.452;2022-10-26T06:09:35;4.85;;;1.55;;
24685;SDS011;12804;51.176;4.452;2022-10-26T06:12:01;8.27;;;1.70;;
24685;SDS011;12804;51.176;4.452;2022-10-26T06:14:27;6.03;;;1.58;;
24685;SDS011;12804;51.176;4.452;2022-10-26T06:17:03;4.43;;;1.60;;
24685;SDS011;12804;51.176;4.452;2022-10-26T06:30:30;5.97;;;2.15;;
24685;SDS011;12804;51.176;4.452;2022-10-26T06:32:56;7.93;;;2.17;;
24685;SDS011;12804;51.176;4.452;2022-10-26T06:35:36;12.23;;;2.55;;
24685;SDS011;12804;51.176;4.452;2022-10-26T06:38:22;7.65;;;2.17;;
24685;SDS011;12804;51.176;4.452;2022-10-26T06:40:51;6.63;;;2.58;;
24685;SDS011;12804;51.176;4.452;2022-10-26T06:43:25;6.50;;;2.38;;
24685;SDS011;12804;51.176;4.452;2022-10-26T06:45:59;8.05;;;2.38;;
24685;SDS011;12804;51.176;4.452;2022-10-26T06:48:29;5.10;;;2.30;;
24685;SDS011;12804;51.176;4.452;2022-10-26T06:51:03;5.95;;;2.40;;
24685;SDS011;12804;51.176;4.452;2022-10-26T06:53:30;5.07;;;2.15;;
24685;SDS011;12804;51.176;4.452;2022-10-26T06:56:03;6.53;;;2.33;;
24685;SDS011;12804;51.176;4.452;2022-10-26T06:58:32;7.70;;;2.47;;
24685;SDS011;12804;51.176;4.452;2022-10-26T07:01:00;7.55;;;2.58;;
24685;SDS011;12804;51.176;4.452;2022-10-26T07:03:26;7.45;;;2.58;;
24685;SDS011;12804;51.176;4.452;2022-10-26T07:05:52;4.80;;;2.67;;
24685;SDS011;12804;51.176;4.452;2022-10-26T07:08:18;6.95;;;2.55;;
24685;SDS011;12804;51.176;4.452;2022-10-26T07:10:45;8.00;;;2.80;;
24685;SDS011;12804;51.176;4.452;2022-10-26T07:13:11;4.53;;;2.50;;
24685;SDS011;12804;51.176;4.452;2022-10-26T07:15:37;5.38;;;2.45;;
24685;SDS011;12804;51.176;4.452;2022-10-26T07:18:07;6.30;;;2.22;;
24685;SDS011;12804;51.176;4.452;2022-10-26T07:20:37;4.15;;;2.33;;
24685;SDS011;12804;51.176;4.452;2022-10-26T07:23:04;6.30;;;2.70;;
24685;SDS011;12804;51.176;4.452;2022-10-26T07:25:31;4.90;;;1.95;;
24685;SDS011;12804;51.176;4.452;2022-10-26T07:27:58;7.18;;;2.30;;
24685;SDS011;12804;51.176;4.452;2022-10-26T07:30:24;3.40;;;2.17;;
24685;SDS011;12804;51.176;4.452;2022-10-26T07:32:57;4.80;;;2.25;;
24685;SDS011;12804;51.176;4.452;2022-10-26T07:35:31;5.97;;;2.30;;
24685;SDS011;12804;51.176;4.452;2022-10-26T07:37:58;4.00;;;2.17;;
24685;SDS011;12804;51.176;4.452;2022-10-26T07:40:24;9.07;;;2.53;;
24685;SDS011;12804;51.176;4.452;2022-10-26T07:42:50;9.95;;;2.40;;
24685;SDS011;12804;51.176;4.452;2022-10-26T07:45:17;8.38;;;2.50;;
24685;SDS011;12804;51.176;4.452;2022-10-26T07:47:43;7.80;;;2.22;;
24685;SDS011;12804;51.176;4.452;2022-10-26T07:50:10;5.85;;;2.47;;
24685;SDS011;12804;51.176;4.452;2022-10-26T07:52:37;8.90;;;2.00;;
24685;SDS011;12804;51.176;4.452;2022-10-26T07:55:05;9.10;;;2.58;;
24685;SDS011;12804;51.176;4.452;2022-10-26T07:57:33;5.88;;;2.63;;
24685;SDS011;12804;51.176;4.452;2022-10-26T07:59:59;5.25;;;2.50;;
24685;SDS011;12804;51.176;4.452;2022-10-26T08:02:24;6.50;;;2.20;;
24685;SDS011;12804;51.176;4.452;2022-10-26T08:04:50;4.60;;;1.80;;
24685;SDS011;12804;51.176;4.452;2022-10-26T08:07:17;4.18;;;2.05;;
24685;SDS011;12804;51.176;4.452;2022-10-26T08:09:43;4.68;;;2.08;;
24685;SDS011;12804;51.176;4.452;2022-10-26T08:12:09;10.38;;;2.00;;
24685;SDS011;12804;51.176;4.452;2022-10-26T08:14:37;7.68;;;1.88;;
24685;SDS011;12804;51.176;4.452;2022-10-26T08:17:03;4.13;;;1.73;;
24685;SDS011;12804;51.176;4.452;2022-10-26T08:19:29;6.00;;;1.65;;
24685;SDS011;12804;51.176;4.452;2022-10-26T08:21:54;7.35;;;1.95;;
24685;SDS011;12804;51.176;4.452;2022-10-26T08:24:21;6.03;;;1.60;;
24685;SDS011;12804;51.176;4.452;2022-10-26T08:26:47;6.15;;;1.77;;
24685;SDS011;12804;51.176;4.452;2022-10-26T08:29:13;3.60;;;1.70;;
24685;SDS011;12804;51.176;4.452;2022-10-26T08:31:39;5.60;;;1.77;;
24685;SDS011;12804;51.176;4.452;2022-10-26T08:34:05;7.32;;;1.55;;
24685;SDS011;12804;51.176;4.452;2022-10-26T08:36:30;5.07;;;2.22;;
24685;SDS011;12804;51.176;4.452;2022-10-26T08:38:56;6.40;;;2.20;;
24685;SDS011;12804;51.176;4.452;2022-10-26T08:44:20;2.72;;;1.60;;
24685;SDS011;12804;51.176;4.452;2022-10-26T08:47:22;5.15;;;1.75;;
24685;SDS011;12804;51.176;4.452;2022-10-26T08:50:02;3.80;;;1.70;;
24685;SDS011;12804;51.176;4.452;2022-10-26T08:52:57;9.13;;;1.73;;
24685;SDS011;12804;51.176;4.452;2022-10-26T08:55:21;6.00;;;1.63;;
24685;SDS011;12804;51.176;4.452;2022-10-26T08:57:53;6.20;;;1.63;;
24685;SDS011;12804;51.176;4.452;2022-10-26T09:00:20;4.80;;;1.50;;
24685;SDS011;12804;51.176;4.452;2022-10-26T09:02:49;6.68;;;1.50;;
24685;SDS011;12804;51.176;4.452;2022-10-26T09:05:17;5.38;;;1.50;;
24685;SDS011;12804;51.176;4.452;2022-10-26T09:08:31;6.82;;;1.83;;
24685;SDS011;12804;51.176;4.452;2022-10-26T09:10:49;4.90;;;1.67;;
24685;SDS011;12804;51.176;4.452;2022-10-26T09:24:20;5.22;;;1.60;;
24685;SDS011;12804;51.176;4.452;2022-10-26T09:26:55;5.07;;;1.48;;
24685;SDS011;12804;51.176;4.452;2022-10-26T09:29:29;3.60;;;1.60;;
24685;SDS011;12804;51.176;4.452;2022-10-26T09:32:03;4.43;;;1.48;;
24685;SDS011;12804;51.176;4.452;2022-10-26T09:34:38;7.40;;;1.67;;
24685;SDS011;12804;51.176;4.452;2022-10-26T09:37:20;6.37;;;1.50;;
24685;SDS011;12804;51.176;4.452;2022-10-26T09:45:49;4.25;;;1.60;;
24685;SDS011;12804;51.176;4.452;2022-10-26T09:48:35;5.53;;;1.60;;
24685;SDS011;12804;51.176;4.452;2022-10-26T09:51:07;2.95;;;1.27;;
24685;SDS011;12804;51.176;4.452;2022-10-26T09:53:35;6.05;;;1.90;;
24685;SDS011;12804;51.176;4.452;2022-10-26T09:56:05;6.63;;;1.58;;
24685;SDS011;12804;51.176;4.452;2022-10-26T09:58:35;4.05;;;1.25;;
24685;SDS011;12804;51.176;4.452;2022-10-26T10:01:21;5.13;;;1.17;;
24685;SDS011;12804;51.176;4.452;2022-10-26T10:03:46;5.30;;;1.40;;
24685;SDS011;12804;51.176;4.452;2022-10-26T10:06:16;5.95;;;1.48;;
24685;SDS011;12804;51.176;4.452;2022-10-26T10:09:03;9.60;;;1.35;;
24685;SDS011;12804;51.176;4.452;2022-10-26T10:14:20;3.20;;;1.15;;
24685;SDS011;12804;51.176;4.452;2022-10-26T10:16:52;4.07;;;1.27;;
24685;SDS011;12804;51.176;4.452;2022-10-26T10:19:29;4.30;;;1.10;;
24685;SDS011;12804;51.176;4.452;2022-10-26T10:22:00;7.20;;;1.80;;
24685;SDS011;12804;51.176;4.452;2022-10-26T10:24:34;3.90;;;1.10;;
24685;SDS011;12804;51.176;4.452;2022-10-26T10:29:42;4.70;;;1.17;;
24685;SDS011;12804;51.176;4.452;2022-10-26T10:32:26;4.60;;;1.60;;
24685;SDS011;12804;51.176;4.452;2022-10-26T10:34:56;4.32;;;0.98;;
24685;SDS011;12804;51.176;4.452;2022-10-26T10:37:28;4.65;;;1.20;;
24685;SDS011;12804;51.176;4.452;2022-10-26T10:40:05;3.90;;;1.10;;
24685;SDS011;12804;51.176;4.452;2022-10-26T10:42:34;2.60;;;1.02;;
24685;SDS011;12804;51.176;4.452;2022-10-26T10:45:02;2.85;;;1.10;;
24685;SDS011;12804;51.176;4.452;2022-10-26T10:47:33;3.33;;;0.88;;
24685;SDS011;12804;51.176;4.452;2022-10-26T10:50:01;7.63;;;1.00;;
24685;SDS011;12804;51.176;4.452;2022-10-26T10:52:35;3.73;;;1.13;;
24685;SDS011;12804;51.176;4.452;2022-10-26T10:57:50;3.45;;;0.80;;
24685;SDS011;12804;51.176;4.452;2022-10-26T11:00:26;2.70;;;0.90;;
24685;SDS011;12804;51.176;4.452;2022-10-26T11:03:01;5.82;;;1.33;;
24685;SDS011;12804;51.176;4.452;2022-10-26T11:05:36;5.05;;;1.30;;
24685;SDS011;12804;51.176;4.452;2022-10-26T11:08:20;3.00;;;1.17;;
24685;SDS011;12804;51.176;4.452;2022-10-26T11:11:00;3.58;;;1.20;;
24685;SDS011;12804;51.176;4.452;2022-10-26T11:13:32;4.13;;;1.10;;
24685;SDS011;12804;51.176;4.452;2022-10-26T11:16:10;2.70;;;1.00;;
24685;SDS011;12804;51.176;4.452;2022-10-26T11:18:42;4.53;;;1.10;;
24685;SDS011;12804;51.176;4.452;2022-10-26T11:26:57;5.78;;;1.20;;
24685;SDS011;12804;51.176;4.452;2022-10-26T11:32:02;4.32;;;1.42;;
24685;SDS011;12804;51.176;4.452;2022-10-26T11:37:14;3.22;;;1.10;;
24685;SDS011;12804;51.176;4.452;2022-10-26T11:43:07;3.53;;;1.27;;
24685;SDS011;12804;51.176;4.452;2022-10-26T11:46:01;2.97;;;1.38;;
24685;SDS011;12804;51.176;4.452;2022-10-26T11:51:17;2.67;;;1.00;;
24685;SDS011;12804;51.176;4.452;2022-10-26T11:53:58;6.10;;;1.20;;
24685;SDS011;12804;51.176;4.452;2022-10-26T11:56:33;3.83;;;1.50;;
24685;SDS011;12804;51.176;4.452;2022-10-26T11:59:17;5.35;;;1.15;;
24685;SDS011;12804;51.176;4.452;2022-10-26T12:01:46;3.40;;;1.42;;
24685;SDS011;12804;51.176;4.452;2022-10-26T12:04:29;4.05;;;0.98;;
24685;SDS011;12804;51.176;4.452;2022-10-26T12:06:58;6.47;;;1.20;;
24685;SDS011;12804;51.176;4.452;2022-10-26T12:09:29;4.68;;;1.15;;
24685;SDS011;12804;51.176;4.452;2022-10-26T12:12:00;2.53;;;1.00;;
24685;SDS011;12804;51.176;4.452;2022-10-26T12:14:48;3.85;;;1.10;;
24685;SDS011;12804;51.176;4.452;2022-10-26T12:17:34;4.05;;;1.30;;
24685;SDS011;12804;51.176;4.452;2022-10-26T12:23:31;3.03;;;1.20;;
24685;SDS011;12804;51.176;4.452;2022-10-26T12:28:47;3.35;;;1.05;;
24685;SDS011;12804;51.176;4.452;2022-10-26T12:34:00;4.95;;;1.08;;
24685;SDS011;12804;51.176;4.452;2022-10-26T12:39:53;4.22;;;1.00;;
24685;SDS011;12804;51.176;4.452;2022-10-26T12:44:33;3.15;;;1.10;;
24685;SDS011;12804;51.176;4.452;2022-10-26T12:47:02;6.93;;;1.48;;
24685;SDS011;12804;51.176;4.452;2022-10-26T12:52:33;5.45;;;1.38;;
24685;SDS011;12804;51.176;4.452;2022-10-26T13:09:02;2.92;;;0.88;;
24685;SDS011;12804;51.176;4.452;2022-10-26T13:11:34;4.53;;;1.10;;
24685;SDS011;12804;51.176;4.452;2022-10-26T13:14:07;2.80;;;0.80;;
24685;SDS011;12804;51.176;4.452;2022-10-26T13:16:51;2.88;;;1.17;;
24685;SDS011;12804;51.176;4.452;2022-10-26T13:19:53;6.15;;;1.10;;
24685;SDS011;12804;51.176;4.452;2022-10-26T13:22:18;4.70;;;0.98;;
24685;SDS011;12804;51.176;4.452;2022-10-26T13:25:01;4.10;;;1.58;;
24685;SDS011;12804;51.176;4.452;2022-10-26T13:32:54;3.15;;;1.00;;
24685;SDS011;12804;51.176;4.452;2022-10-26T13:35:22;3.40;;;0.90;;
24685;SDS011;12804;51.176;4.452;2022-10-26T13:37:49;4.10;;;1.00;;
24685;SDS011;12804;51.176;4.452;2022-10-26T13:40:18;4.53;;;1.00;;
24685;SDS011;12804;51.176;4.452;2022-10-26T13:42:53;6.05;;;1.20;;
24685;SDS011;12804;51.176;4.452;2022-10-26T13:45:27;4.28;;;1.20;;
24685;SDS011;12804;51.176;4.452;2022-10-26T13:50:27;4.53;;;1.00;;
24685;SDS011;12804;51.176;4.452;2022-10-26T13:59:02;3.03;;;0.98;;
24685;SDS011;12804;51.176;4.452;2022-10-26T14:01:33;4.30;;;0.95;;
24685;SDS011;12804;51.176;4.452;2022-10-26T14:04:12;6.40;;;1.10;;
24685;SDS011;12804;51.176;4.452;2022-10-26T14:06:39;6.55;;;1.40;;
24685;SDS011;12804;51.176;4.452;2022-10-26T14:09:13;3.63;;;0.90;;
24685;SDS011;12804;51.176;4.452;2022-10-26T14:11:46;4.05;;;0.80;;
24685;SDS011;12804;51.176;4.452;2022-10-26T14:14:18;5.32;;;1.00;;
24685;SDS011;12804;51.176;4.452;2022-10-26T14:16:47;2.75;;;0.80;;
24685;SDS011;12804;51.176;4.452;2022-10-26T14:19:22;6.10;;;0.80;;
24685;SDS011;12804;51.176;4.452;2022-10-26T14:21:49;3.95;;;0.80;;
24685;SDS011;12804;51.176;4.452;2022-10-26T14:24:20;8.60;;;1.63;;
24685;SDS011;12804;51.176;4.452;2022-10-26T14:26:47;3.95;;;0.95;;
24685;SDS011;12804;51.176;4.452;2022-10-26T14:29:15;6.55;;;1.38;;
24685;SDS011;12804;51.176;4.452;2022-10-26T14:31:47;2.63;;;0.70;;
24685;SDS011;12804;51.176;4.452;2022-10-26T14:34:16;3.83;;;1.10;;
24685;SDS011;12804;51.176;4.452;2022-10-26T14:36:44;5.88;;;0.93;;
24685;SDS011;12804;51.176;4.452;2022-10-26T14:41:49;2.75;;;0.90;;
24685;SDS011;12804;51.176;4.452;2022-10-26T14:44:20;4.38;;;1.13;;
24685;SDS011;12804;51.176;4.452;2022-10-26T14:46:48;4.70;;;1.10;;
24685;SDS011;12804;51.176;4.452;2022-10-26T14:49:24;2.53;;;0.88;;
24685;SDS011;12804;51.176;4.452;2022-10-26T14:51:56;4.63;;;1.02;;
24685;SDS011;12804;51.176;4.452;2022-10-26T14:54:23;5.30;;;1.15;;
24685;SDS011;12804;51.176;4.452;2022-10-26T14:56:53;5.03;;;1.25;;
24685;SDS011;12804;51.176;4.452;2022-10-26T15:04:30;3.15;;;0.90;;
24685;SDS011;12804;51.176;4.452;2022-10-26T15:09:46;4.40;;;1.00;;
24685;SDS011;12804;51.176;4.452;2022-10-26T15:17:41;2.55;;;0.82;;
24685;SDS011;12804;51.176;4.452;2022-10-26T15:20:15;5.65;;;0.90;;
24685;SDS011;12804;51.176;4.452;2022-10-26T15:22:48;3.40;;;1.08;;
24685;SDS011;12804;51.176;4.452;2022-10-26T15:25:18;5.35;;;0.90;;
24685;SDS011;12804;51.176;4.452;2022-10-26T15:27:47;5.28;;;1.00;;
24685;SDS011;12804;51.176;4.452;2022-10-26T15:30:18;5.13;;;1.10;;
24685;SDS011;12804;51.176;4.452;2022-10-26T15:32:46;6.07;;;1.13;;
24685;SDS011;12804;51.176;4.452;2022-10-26T15:35:13;4.78;;;1.00;;
24685;SDS011;12804;51.176;4.452;2022-10-26T15:37:43;6.20;;;1.08;;
24685;SDS011;12804;51.176;4.452;2022-10-26T15:40:16;2.40;;;1.00;;
24685;SDS011;12804;51.176;4.452;2022-10-26T15:42:42;3.10;;;1.00;;
24685;SDS011;12804;51.176;4.452;2022-10-26T15:45:16;3.85;;;1.13;;
24685;SDS011;12804;51.176;4.452;2022-10-26T15:47:47;7.50;;;1.33;;
24685;SDS011;12804;51.176;4.452;2022-10-26T15:50:17;6.60;;;1.10;;
24685;SDS011;12804;51.176;4.452;2022-10-26T15:52:45;5.82;;;1.33;;
24685;SDS011;12804;51.176;4.452;2022-10-26T15:55:11;4.90;;;1.40;;
24685;SDS011;12804;51.176;4.452;2022-10-26T15:57:37;4.65;;;1.30;;
24685;SDS011;12804;51.176;4.452;2022-10-26T16:00:04;3.67;;;1.10;;
24685;SDS011;12804;51.176;4.452;2022-10-26T16:02:35;4.13;;;1.27;;
24685;SDS011;12804;51.176;4.452;2022-10-26T16:05:02;6.75;;;1.40;;
24685;SDS011;12804;51.176;4.452;2022-10-26T16:07:28;5.00;;;1.33;;
24685;SDS011;12804;51.176;4.452;2022-10-26T16:09:54;5.78;;;1.15;;
24685;SDS011;12804;51.176;4.452;2022-10-26T16:12:20;5.95;;;1.20;;
24685;SDS011;12804;51.176;4.452;2022-10-26T16:14:46;4.82;;;1.38;;
24685;SDS011;12804;51.176;4.452;2022-10-26T16:17:11;5.32;;;1.15;;
24685;SDS011;12804;51.176;4.452;2022-10-26T16:19:37;5.53;;;1.42;;
24685;SDS011;12804;51.176;4.452;2022-10-26T16:22:03;4.38;;;1.38;;
24685;SDS011;12804;51.176;4.452;2022-10-26T16:24:29;4.07;;;1.20;;
24685;SDS011;12804;51.176;4.452;2022-10-26T16:26:56;4.35;;;0.95;;
24685;SDS011;12804;51.176;4.452;2022-10-26T16:29:22;3.17;;;1.10;;
24685;SDS011;12804;51.176;4.452;2022-10-26T16:31:48;4.47;;;1.02;;
24685;SDS011;12804;51.176;4.452;2022-10-26T16:34:14;4.63;;;1.30;;
24685;SDS011;12804;51.176;4.452;2022-10-26T16:36:40;3.85;;;1.27;;
24685;SDS011;12804;51.176;4.452;2022-10-26T16:39:05;5.05;;;1.20;;
24685;SDS011;12804;51.176;4.452;2022-10-26T16:41:31;4.30;;;1.10;;
24685;SDS011;12804;51.176;4.452;2022-10-26T16:43:58;4.45;;;1.40;;
24685;SDS011;12804;51.176;4.452;2022-10-26T16:46:24;10.20;;;1.50;;
24685;SDS011;12804;51.176;4.452;2022-10-26T16:48:50;3.53;;;1.27;;
24685;SDS011;12804;51.176;4.452;2022-10-26T16:51:18;4.90;;;1.48;;
24685;SDS011;12804;51.176;4.452;2022-10-26T16:53:49;5.05;;;1.90;;
24685;SDS011;12804;51.176;4.452;2022-10-26T16:56:17;3.97;;;1.63;;
24685;SDS011;12804;51.176;4.452;2022-10-26T16:58:45;6.72;;;1.50;;
24685;SDS011;12804;51.176;4.452;2022-10-26T17:01:12;6.28;;;1.85;;
24685;SDS011;12804;51.176;4.452;2022-10-26T17:03:42;6.18;;;1.67;;
24685;SDS011;12804;51.176;4.452;2022-10-26T17:06:12;5.93;;;1.85;;
24685;SDS011;12804;51.176;4.452;2022-10-26T17:08:38;6.82;;;1.90;;
24685;SDS011;12804;51.176;4.452;2022-10-26T17:11:09;6.20;;;2.00;;
24685;SDS011;12804;51.176;4.452;2022-10-26T17:13:37;5.93;;;1.92;;
24685;SDS011;12804;51.176;4.452;2022-10-26T17:16:04;4.60;;;1.95;;
24685;SDS011;12804;51.176;4.452;2022-10-26T17:18:31;6.28;;;1.50;;
24685;SDS011;12804;51.176;4.452;2022-10-26T17:20:57;5.80;;;2.10;;
24685;SDS011;12804;51.176;4.452;2022-10-26T17:23:23;7.05;;;2.08;;
24685;SDS011;12804;51.176;4.452;2022-10-26T17:25:49;4.07;;;2.20;;
24685;SDS011;12804;51.176;4.452;2022-10-26T17:28:15;6.85;;;1.98;;
24685;SDS011;12804;51.176;4.452;2022-10-26T17:30:42;5.63;;;1.80;;
24685;SDS011;12804;51.176;4.452;2022-10-26T17:33:09;6.90;;;2.20;;
24685;SDS011;12804;51.176;4.452;2022-10-26T17:35:35;9.27;;;2.22;;